Time;durP1;ratioP1;P1;durP2;ratioP2;P2;SDS_P1;SDS_P2;PMS_P1;PMS_P2;Temp;Humidity;BMP_temperature;BMP_pressure;BME280_temperature;BME280_humidity;BME280_pressure;Samples;Min_cycle;Max_cycle;Signal;HPM_P1;HPM_P2
2023/10/24 00:02:05;;;;;;;24.27;14.48;;;;;;;9.53;100.00;99259.94;4995294;28;20041;-89
2023/10/24 00:04:30;;;;;;;20.60;14.32;;;;;;;9.48;100.00;99262.75;5012533;28;20113;-89
2023/10/24 00:06:55;;;;;;;21.77;13.73;;;;;;;9.57;100.00;99271.88;5013021;28;20032;-89
2023/10/24 00:09:21;;;;;;;22.45;14.30;;;;;;;9.59;100.00;99275.25;4995164;28;20033;-88
2023/10/24 00:11:46;;;;;;;21.50;14.68;;;;;;;9.58;100.00;99278.75;4995518;28;20034;-89
2023/10/24 00:14:11;;;;;;;28.23;14.80;;;;;;;9.55;100.00;99278.91;5012745;28;20029;-88
2023/10/24 00:16:37;;;;;;;19.38;13.70;;;;;;;9.41;100.00;99261.38;5012508;28;20045;-89
2023/10/24 00:19:02;;;;;;;27.20;14.95;;;;;;;9.38;100.00;99274.50;5012925;28;20026;-89
2023/10/24 00:21:28;;;;;;;24.67;14.52;;;;;;;9.46;100.00;99272.38;4994940;28;20092;-89
2023/10/24 00:23:53;;;;;;;25.17;14.85;;;;;;;9.52;100.00;99271.25;4995260;28;20369;-89
2023/10/24 00:26:18;;;;;;;25.48;14.68;;;;;;;9.36;100.00;99250.38;4994638;28;20388;-89
2023/10/24 00:28:44;;;;;;;22.80;15.25;;;;;;;9.46;100.00;99265.44;5012614;28;20053;-89
2023/10/24 00:31:09;;;;;;;22.77;14.27;;;;;;;9.54;100.00;99270.25;4994976;28;20496;-89
2023/10/24 00:33:34;;;;;;;24.98;14.88;;;;;;;9.43;100.00;99256.94;4994469;28;20120;-89
2023/10/24 00:36:00;;;;;;;23.13;14.85;;;;;;;9.35;100.00;99226.09;4995163;28;20030;-89
2023/10/24 00:38:25;;;;;;;25.73;15.55;;;;;;;9.60;100.00;99259.56;4994849;28;20461;-89
2023/10/24 00:40:50;;;;;;;23.38;15.13;;;;;;;9.62;100.00;99252.53;4995070;28;20022;-89
2023/10/24 00:43:15;;;;;;;24.00;15.23;;;;;;;9.56;100.00;99245.00;4994361;28;20085;-89
2023/10/24 00:45:41;;;;;;;25.33;15.57;;;;;;;9.79;100.00;99269.06;4994333;28;20068;-89
2023/10/24 00:48:07;;;;;;;23.67;15.20;;;;;;;9.79;100.00;99271.66;5012431;28;20088;-89
2023/10/24 00:50:32;;;;;;;28.38;16.85;;;;;;;9.83;100.00;99274.03;5012268;28;20378;-89
2023/10/24 00:53:00;;;;;;;20.83;15.38;;;;;;;9.80;100.00;99258.56;4994719;28;20499;-89
2023/10/24 00:55:25;;;;;;;27.73;16.13;;;;;;;9.86;100.00;99276.50;4994435;28;20087;-89
2023/10/24 00:57:52;;;;;;;24.10;15.38;;;;;;;9.73;100.00;99250.25;4994615;28;20033;-89
2023/10/24 01:00:21;;;;;;;23.30;15.35;;;;;;;9.91;100.00;99252.84;4994572;28;20050;-89
2023/10/24 01:02:47;;;;;;;27.48;17.30;;;;;;;9.52;100.00;99172.44;4994744;28;20029;-89
2023/10/24 01:05:12;;;;;;;24.10;14.85;;;;;;;9.82;100.00;99235.09;4994477;28;20539;-89
2023/10/24 01:07:38;;;;;;;24.77;13.50;;;;;;;9.84;100.00;99231.50;4994193;28;20531;-89
2023/10/24 01:10:03;;;;;;;21.40;14.38;;;;;;;9.69;100.00;99190.66;4994602;28;20037;-89
2023/10/24 01:12:29;;;;;;;19.20;13.40;;;;;;;9.79;100.00;99199.69;4994077;28;20026;-89
2023/10/24 01:14:54;;;;;;;21.95;14.52;;;;;;;9.75;100.00;99191.19;4994398;28;20041;-89
2023/10/24 01:17:20;;;;;;;27.40;14.90;;;;;;;9.68;100.00;99158.59;4994303;28;20030;-89
2023/10/24 01:19:45;;;;;;;25.77;14.90;;;;;;;9.79;100.00;99180.63;4994327;28;20054;-89
2023/10/24 01:22:10;;;;;;;27.92;14.95;;;;;;;9.98;100.00;99192.59;4994414;28;20026;-89
2023/10/24 01:24:36;;;;;;;22.58;14.05;;;;;;;9.97;100.00;99184.88;4994084;28;20531;-89
2023/10/24 01:27:01;;;;;;;24.38;13.88;;;;;;;9.91;100.00;99195.63;4994153;28;20050;-89
2023/10/24 01:29:26;;;;;;;24.33;14.63;;;;;;;9.90;100.00;99205.19;5011803;28;20477;-89
2023/10/24 01:31:52;;;;;;;24.45;14.50;;;;;;;9.97;100.00;99214.34;4994196;28;20484;-89
2023/10/24 01:34:18;;;;;;;23.30;14.30;;;;;;;9.96;100.00;99198.81;4994342;28;20026;-89
2023/10/24 01:36:43;;;;;;;23.35;13.50;;;;;;;9.95;100.00;99194.56;4994256;28;20039;-89
2023/10/24 01:39:10;;;;;;;23.52;14.07;;;;;;;9.84;100.00;99183.84;4994270;28;20030;-89
2023/10/24 01:41:35;;;;;;;22.63;13.27;;;;;;;9.95;100.00;99198.00;4994046;28;20108;-89
2023/10/24 01:44:00;;;;;;;18.50;12.20;;;;;;;9.92;100.00;99182.53;5012080;28;20025;-89
2023/10/24 01:46:26;;;;;;;22.60;13.43;;;;;;;9.96;100.00;99188.41;4993669;28;20037;-89
2023/10/24 01:48:51;;;;;;;22.50;12.02;;;;;;;10.02;100.00;99201.09;4994324;28;20034;-89
2023/10/24 01:51:17;;;;;;;23.20;11.82;;;;;;;9.92;100.00;99174.72;4994456;28;20737;-89
2023/10/24 01:53:42;;;;;;;28.00;12.85;;;;;;;9.89;100.00;99168.84;4994156;28;20038;-89
2023/10/24 01:56:10;;;;;;;22.73;12.70;;;;;;;9.95;100.00;99165.94;5013203;28;20034;-89
2023/10/24 01:58:35;;;;;;;20.83;11.88;;;;;;;10.02;100.00;99174.25;4997541;28;20030;-89
2023/10/24 02:01:01;;;;;;;21.55;12.52;;;;;;;9.97;100.00;99170.13;4997634;28;20072;-89
2023/10/24 02:03:26;;;;;;;20.42;13.05;;;;;;;9.99;100.00;99160.50;4997563;28;20030;-89
2023/10/24 02:05:51;;;;;;;19.83;12.13;;;;;;;10.02;100.00;99163.84;4997653;28;20030;-89
2023/10/24 02:08:17;;;;;;;21.73;12.68;;;;;;;9.95;100.00;99147.72;4997676;28;20034;-89
2023/10/24 02:10:42;;;;;;;19.38;12.30;;;;;;;10.00;100.00;99154.34;4997446;28;20033;-89
2023/10/24 02:13:07;;;;;;;21.42;12.93;;;;;;;10.07;100.00;99167.91;5015620;28;20041;-89
2023/10/24 02:15:35;;;;;;;28.58;15.32;;;;;;;10.08;100.00;99163.53;4997191;28;20034;-89
2023/10/24 02:18:00;;;;;;;23.00;12.68;;;;;;;10.06;100.00;99158.38;4997314;28;20125;-88
2023/10/24 02:20:26;;;;;;;23.75;14.00;;;;;;;10.11;100.00;99171.16;4997379;28;20108;-89
2023/10/24 02:22:51;;;;;;;24.23;14.40;;;;;;;10.23;100.00;99186.97;4997359;28;20441;-89
2023/10/24 02:25:16;;;;;;;26.65;13.13;;;;;;;10.23;100.00;99176.56;4997185;28;20473;-89
2023/10/24 02:27:42;;;;;;;24.35;14.18;;;;;;;10.23;100.00;99176.56;4996781;28;20483;-89
2023/10/24 02:30:08;;;;;;;25.17;14.43;;;;;;;10.17;100.00;99179.50;4997233;28;20076;-89
2023/10/24 02:32:33;;;;;;;28.83;15.88;;;;;;;10.17;100.00;99168.25;4997060;28;20036;-88
2023/10/24 02:34:58;;;;;;;29.90;14.70;;;;;;;10.24;100.00;99178.28;4997174;28;20057;-88
2023/10/24 02:37:24;;;;;;;24.55;14.70;;;;;;;10.28;100.00;99170.31;5014674;28;20378;-88
2023/10/24 02:39:49;;;;;;;22.88;14.05;;;;;;;10.27;100.00;99176.44;4996900;28;20026;-89
2023/10/24 02:42:15;;;;;;;27.35;14.48;;;;;;;10.28;100.00;99176.38;4997069;28;20040;-89
2023/10/24 02:44:40;;;;;;;22.77;14.38;;;;;;;10.32;100.00;99158.81;4996565;28;20493;-89
2023/10/24 02:47:05;;;;;;;21.60;13.68;;;;;;;10.15;100.00;99131.88;5014499;28;20448;-89
2023/10/24 02:49:32;;;;;;;21.88;14.18;;;;;;;10.04;100.00;99118.63;5014341;28;20110;-88
2023/10/24 02:51:57;;;;;;;27.60;15.80;;;;;;;10.27;100.00;99163.44;4996910;28;20038;-88
2023/10/24 02:54:23;;;;;;;25.05;14.50;;;;;;;10.23;100.00;99154.91;5014740;28;20030;-88
2023/10/24 02:56:49;;;;;;;24.85;13.85;;;;;;;10.22;100.00;99146.25;4996419;28;20081;-89
2023/10/24 02:59:14;;;;;;;22.33;13.93;;;;;;;10.07;100.00;99135.81;4996566;28;20469;-89
2023/10/24 03:01:40;;;;;;;27.02;14.55;;;;;;;10.17;100.00;99160.44;4996605;28;20029;-89
2023/10/24 03:04:05;;;;;;;20.95;13.65;;;;;;;10.26;100.00;99179.97;4996651;28;20038;-89
2023/10/24 03:06:30;;;;;;;26.48;15.80;;;;;;;9.95;100.00;99116.50;4995862;28;20026;-88
2023/10/24 03:08:56;;;;;;;28.67;15.05;;;;;;;10.21;100.00;99154.16;5014269;28;20040;-89
2023/10/24 03:11:23;;;;;;;24.90;15.40;;;;;;;10.16;100.00;99151.81;4996666;28;20026;-89
2023/10/24 03:13:49;;;;;;;31.88;18.38;;;;;;;10.17;100.00;99163.88;4996199;28;20069;-89
2023/10/24 03:16:14;;;;;;;21.75;13.65;;;;;;;10.12;100.00;99146.84;4996422;28;20069;-89
2023/10/24 03:18:40;;;;;;;27.92;16.30;;;;;;;10.08;100.00;99135.75;4996153;28;20438;-89
2023/10/24 03:21:07;;;;;;;22.80;14.77;;;;;;;10.03;100.00;99122.16;4996439;28;20026;-89
2023/10/24 03:23:33;;;;;;;26.63;16.42;;;;;;;10.17;100.00;99143.06;4996036;28;20040;-89
2023/10/24 03:25:59;;;;;;;24.40;14.98;;;;;;;10.15;100.00;99146.66;4996088;28;20022;-89
2023/10/24 03:28:24;;;;;;;23.85;15.10;;;;;;;10.16;100.00;99154.41;4995860;28;20054;-89
2023/10/24 03:31:00;;;;;;;26.98;15.50;;;;;;;10.10;100.00;99149.50;4995994;28;20161;-89
2023/10/24 03:33:25;;;;;;;25.63;15.88;;;;;;;10.15;100.00;99151.88;4996228;28;20063;-89
2023/10/24 03:35:50;;;;;;;26.20;15.43;;;;;;;10.12;100.00;99160.69;4995790;28;20034;-89
2023/10/24 03:38:16;;;;;;;25.05;15.00;;;;;;;10.16;100.00;99162.22;4995893;28;20029;-89
2023/10/24 03:40:41;;;;;;;24.80;15.02;;;;;;;10.30;100.00;99171.91;5013277;28;20022;-89
2023/10/24 03:43:06;;;;;;;25.08;15.15;;;;;;;10.25;100.00;99166.13;4995700;28;20030;-89
2023/10/24 03:45:32;;;;;;;22.75;14.85;;;;;;;10.29;100.00;99161.59;4995579;28;20049;-89
2023/10/24 03:47:57;;;;;;;23.73;15.15;;;;;;;10.08;100.00;99116.69;5013377;28;20111;-89
2023/10/24 03:50:22;;;;;;;24.25;15.48;;;;;;;10.30;100.00;99151.09;4995739;28;20089;-88
2023/10/24 03:52:48;;;;;;;27.33;15.60;;;;;;;10.30;100.00;99158.91;5013065;28;20092;-89
2023/10/24 03:55:13;;;;;;;24.27;15.18;;;;;;;10.30;100.00;99161.50;4995631;28;20492;-89
2023/10/24 03:57:39;;;;;;;29.88;17.15;;;;;;;10.12;100.00;99124.25;4995232;28;20034;-89
2023/10/24 04:00:08;;;;;;;26.98;16.80;;;;;;;10.06;100.00;99108.13;4995658;28;20385;-88
2023/10/24 04:02:33;;;;;;;25.48;17.02;;;;;;;10.06;100.00;99124.56;4995353;28;20527;-89
2023/10/24 04:04:59;;;;;;;26.15;17.15;;;;;;;10.19;100.00;99148.19;5012923;28;20104;-89
2023/10/24 04:07:24;;;;;;;29.67;17.30;;;;;;;10.07;100.00;99138.41;4995348;28;20026;-89
2023/10/24 04:09:50;;;;;;;26.75;16.95;;;;;;;10.16;100.00;99149.19;5012704;28;20089;-89
2023/10/24 04:12:15;;;;;;;29.80;16.35;;;;;;;9.80;100.00;99089.53;5012797;28;20397;-89
2023/10/24 04:14:40;;;;;;;35.10;18.48;;;;;;;10.06;100.00;99139.34;4995160;28;20053;-88
2023/10/24 04:17:06;;;;;;;28.20;17.67;;;;;;;10.00;100.00;99136.16;4995084;28;20030;-89
2023/10/24 04:19:31;;;;;;;26.17;16.58;;;;;;;10.17;100.00;99144.84;4994268;28;20117;-88
2023/10/24 04:21:57;;;;;;;30.15;18.42;;;;;;;10.12;100.00;99131.22;4995061;28;20128;-89
2023/10/24 04:24:22;;;;;;;25.52;16.17;;;;;;;10.07;100.00;99109.78;4995277;28;20532;-88
2023/10/24 04:26:47;;;;;;;29.90;17.25;;;;;;;10.09;100.00;99114.00;4994627;28;20042;-89
2023/10/24 04:29:12;;;;;;;29.25;17.52;;;;;;;10.03;100.00;99082.25;4995294;28;20385;-89
2023/10/24 04:32:05;;;;;;;29.50;17.83;;;;;;;9.88;100.00;99063.94;5148509;27;20417;-88
2023/10/24 04:34:30;;;;;;;25.45;17.25;;;;;;;10.03;100.00;99097.88;5110644;28;20039;-88
2023/10/24 04:36:56;;;;;;;31.23;17.50;;;;;;;9.85;100.00;99084.91;5110317;28;20479;-88
2023/10/24 04:39:21;;;;;;;27.05;17.80;;;;;;;9.78;100.00;99061.94;5110540;28;20589;-88
2023/10/24 04:41:50;;;;;;;30.80;18.95;;;;;;;9.86;100.00;99094.41;5110409;28;20028;-89
2023/10/24 04:44:15;;;;;;;26.88;18.00;;;;;;;9.92;100.00;99091.47;5127706;28;20040;-88
2023/10/24 04:46:41;;;;;;;32.03;18.83;;;;;;;9.87;100.00;99090.91;5127453;28;20084;-88
2023/10/24 04:49:06;;;;;;;27.55;17.70;;;;;;;9.83;100.00;99086.78;5110317;28;20073;-88
2023/10/24 04:51:32;;;;;;;29.95;18.85;;;;;;;9.87;100.00;99090.06;5110474;28;20450;-88
2023/10/24 04:53:57;;;;;;;28.90;17.80;;;;;;;10.00;100.00;99094.53;5110033;27;20058;-90
2023/10/24 04:56:24;;;;;;;29.77;18.45;;;;;;;9.93;100.00;99089.72;5110217;28;20108;-89
2023/10/24 04:58:49;;;;;;;31.20;19.15;;;;;;;9.98;100.00;99098.94;5086165;28;20036;-89
2023/10/24 05:01:14;;;;;;;24.73;17.25;;;;;;;9.92;100.00;99088.03;5069585;28;20090;-88
2023/10/24 05:03:40;;;;;;;28.67;18.27;;;;;;;10.01;100.00;99082.34;5063087;28;20135;-89
2023/10/24 05:06:05;;;;;;;31.52;20.25;;;;;;;9.97;100.00;99070.44;5049414;28;20033;-89
2023/10/24 05:08:30;;;;;;;30.30;19.98;;;;;;;10.02;100.00;99078.81;5041762;28;20042;-89
2023/10/24 05:10:56;;;;;;;33.95;18.70;;;;;;;9.82;100.00;99053.03;5026134;28;20036;-89
2023/10/24 05:13:21;;;;;;;25.85;17.33;;;;;;;9.94;100.00;99061.03;5009829;28;20033;-89
2023/10/24 05:15:46;;;;;;;29.00;19.65;;;;;;;9.99;100.00;99069.44;5042673;28;20551;-89
2023/10/24 05:18:12;;;;;;;31.17;18.15;;;;;;;10.01;100.00;99069.34;5026469;28;20076;-89
2023/10/24 05:20:38;;;;;;;27.70;16.73;;;;;;;10.07;100.00;99075.97;5042712;28;20042;-88
2023/10/24 05:23:04;;;;;;;27.73;17.60;;;;;;;9.86;100.00;99050.19;5042765;28;20503;-89
2023/10/24 05:25:29;;;;;;;26.63;17.10;;;;;;;9.89;100.00;99068.22;5042714;28;20041;-88
2023/10/24 05:27:54;;;;;;;34.72;19.90;;;;;;;9.90;100.00;99058.66;5009373;28;20120;-88
2023/10/24 05:30:21;;;;;;;36.90;17.02;;;;;;;9.95;100.00;99062.72;5068709;28;20140;-89
2023/10/24 05:32:46;;;;;;;31.20;19.50;;;;;;;9.96;100.00;99066.97;5046739;28;20051;-89
2023/10/24 05:35:12;;;;;;;30.83;18.00;;;;;;;9.91;100.00;99058.59;5046832;28;20545;-89
2023/10/24 05:37:37;;;;;;;26.45;16.95;;;;;;;9.85;100.00;99052.88;5046500;28;20024;-89
2023/10/24 05:40:03;;;;;;;25.25;17.23;;;;;;;9.80;100.00;99041.88;5047165;28;20029;-89
2023/10/24 05:42:28;;;;;;;27.73;18.92;;;;;;;9.88;100.00;99037.94;5037798;28;20484;-89
2023/10/24 05:44:53;;;;;;;31.95;18.42;;;;;;;9.85;100.00;99038.09;5066604;28;20497;-89
2023/10/24 05:47:19;;;;;;;34.47;17.95;;;;;;;9.89;100.00;99043.97;5033467;28;20500;-89
2023/10/24 05:49:44;;;;;;;29.27;19.08;;;;;;;9.74;100.00;99030.88;5033114;28;20525;-89
2023/10/24 05:52:09;;;;;;;34.45;20.63;;;;;;;9.90;100.00;99056.06;5034605;28;20040;-89
2023/10/24 05:54:36;;;;;;;37.60;20.35;;;;;;;9.86;100.00;99055.41;5033388;28;20032;-89
2023/10/24 05:57:01;;;;;;;32.50;19.50;;;;;;;9.89;100.00;99078.63;5033065;28;20120;-90
2023/10/24 05:59:27;;;;;;;28.38;18.75;;;;;;;9.89;100.00;99090.81;5033091;28;20116;-89
2023/10/24 06:01:52;;;;;;;30.17;18.65;;;;;;;9.92;100.00;99096.69;5066160;28;20083;-88
2023/10/24 06:04:18;;;;;;;34.15;20.23;;;;;;;9.89;100.00;99083.00;5032984;28;20033;-89
2023/10/24 06:06:43;;;;;;;31.35;19.50;;;;;;;10.01;100.00;99077.16;5034236;28;20036;-89
2023/10/24 06:09:12;;;;;;;28.85;17.90;;;;;;;10.09;100.00;99087.97;5066334;28;20021;-89
2023/10/24 06:11:41;;;;;;;24.00;16.60;;;;;;;10.09;100.00;99081.94;5032912;28;20030;-89
2023/10/24 06:14:06;;;;;;;31.75;18.23;;;;;;;9.93;100.00;99059.34;5032917;28;20034;-89
2023/10/24 06:16:31;;;;;;;32.10;19.98;;;;;;;10.10;100.00;99088.81;5032859;28;20029;-89
2023/10/24 06:18:57;;;;;;;27.90;18.42;;;;;;;10.18;100.00;99091.84;5033793;28;20029;-88
2023/10/24 06:21:22;;;;;;;32.22;18.33;;;;;;;10.21;100.00;99091.69;5032666;28;20032;-89
2023/10/24 06:23:47;;;;;;;28.52;18.23;;;;;;;10.27;100.00;99093.97;5032614;28;20025;-89
2023/10/24 06:26:17;;;;;;;27.75;16.95;;;;;;;10.16;100.00;99063.31;5065998;28;20029;-89
2023/10/24 06:28:43;;;;;;;25.27;18.45;;;;;;;10.28;100.00;99074.00;5032418;28;20029;-88
2023/10/24 06:31:08;;;;;;;36.22;21.85;;;;;;;10.09;100.00;99048.97;5034908;28;20056;-88
2023/10/24 06:33:34;;;;;;;28.52;18.90;;;;;;;10.17;100.00;99045.94;5032506;28;20032;-89
2023/10/24 06:36:02;;;;;;;29.98;19.95;;;;;;;10.44;100.00;99080.88;5032162;28;20025;-89
2023/10/24 06:38:28;;;;;;;28.85;19.48;;;;;;;10.65;100.00;99057.19;5032534;28;20026;-89
2023/10/24 06:40:55;;;;;;;30.55;18.20;;;;;;;10.78;100.00;99052.97;5032445;28;20125;-89
2023/10/24 06:43:21;;;;;;;27.42;16.33;;;;;;;11.04;100.00;99066.25;5032482;28;20029;-89
2023/10/24 06:45:47;;;;;;;23.05;15.60;;;;;;;11.10;100.00;99074.56;5032081;28;20492;-89
2023/10/24 06:48:13;;;;;;;27.98;18.20;;;;;;;11.00;100.00;99055.19;5032195;28;20022;-88
2023/10/24 06:50:39;;;;;;;25.55;16.35;;;;;;;10.98;100.00;99070.91;5065397;28;20120;-89
2023/10/24 06:53:08;;;;;;;24.02;16.25;;;;;;;11.04;100.00;99087.09;5031452;28;20463;-88
2023/10/24 06:55:34;;;;;;;30.48;17.73;;;;;;;10.83;100.00;99073.53;5032351;28;20083;-88
2023/10/24 06:58:00;;;;;;;27.65;16.67;;;;;;;10.79;100.00;99070.28;5032034;28;20029;-89
2023/10/24 07:00:25;;;;;;;34.13;19.50;;;;;;;10.82;100.00;99064.88;5032068;28;20076;-89
2023/10/24 07:02:52;;;;;;;25.13;17.27;;;;;;;10.62;100.00;99020.88;5031703;28;20082;-88
2023/10/24 07:05:18;;;;;;;29.73;17.55;;;;;;;10.80;100.00;99045.91;5032023;28;20029;-89
2023/10/24 07:07:43;;;;;;;28.67;17.52;;;;;;;10.84;100.00;99067.41;5031714;28;20580;-88
2023/10/24 07:10:09;;;;;;;28.05;16.50;;;;;;;10.82;100.00;99054.47;5031864;28;20112;-89
2023/10/24 07:12:34;;;;;;;23.15;16.20;;;;;;;10.87;100.00;99033.34;5065283;28;20025;-89
2023/10/24 07:14:59;;;;;;;26.80;17.73;;;;;;;10.79;100.00;99010.38;5032859;28;20037;-89
2023/10/24 07:17:25;;;;;;;26.75;17.33;;;;;;;10.95;100.00;99036.34;5064145;28;20049;-90
2023/10/24 07:19:51;;;;;;;29.10;17.40;;;;;;;10.65;100.00;98986.88;5031856;28;20037;-88
2023/10/24 07:22:16;;;;;;;27.98;17.00;;;;;;;11.11;100.00;99044.97;5031322;28;20025;-89
2023/10/24 07:36:06;;;;;;;31.05;17.63;;;;;;;11.28;100.00;99033.53;5012210;28;20057;-95
2023/10/24 07:41:53;;;;;;;29.98;16.98;;;;;;;10.94;100.00;98977.38;5041950;28;20153;-91
2023/10/24 07:44:19;;;;;;;23.63;16.20;;;;;;;11.48;100.00;99042.78;5031629;28;20108;-92
2023/10/24 07:47:05;;;;;;;26.08;16.08;;;;;;;11.68;100.00;99046.81;5031941;28;20388;-93
2023/10/24 07:49:51;;;;;;;26.88;16.33;;;;;;;11.73;100.00;99048.22;5010935;28;20026;-90
2023/10/24 07:52:16;;;;;;;23.77;15.45;;;;;;;11.82;100.00;99033.75;5010002;28;20049;-89
2023/10/24 07:54:41;;;;;;;25.67;15.82;;;;;;;11.85;100.00;99014.50;5009984;28;20179;-90
2023/10/24 07:57:07;;;;;;;24.27;16.58;;;;;;;11.89;100.00;99016.00;5009770;28;20041;-90
2023/10/24 07:59:33;;;;;;;25.30;16.63;;;;;;;11.94;100.00;99004.34;5009872;28;20034;-89
2023/10/24 08:01:59;;;;;;;27.70;16.23;;;;;;;11.97;100.00;99000.72;5009789;28;20033;-88
2023/10/24 08:04:26;;;;;;;24.38;15.73;;;;;;;11.89;100.00;98982.91;4989093;28;20411;-87
2023/10/24 08:06:52;;;;;;;23.13;14.57;;;;;;;11.73;100.00;98954.28;4989728;28;20037;-87
2023/10/24 08:09:17;;;;;;;23.85;15.52;;;;;;;11.93;100.00;98984.41;4990250;28;20030;-88
2023/10/24 08:11:42;;;;;;;26.00;15.40;;;;;;;11.99;100.00;98957.91;4990019;28;20634;-88
2023/10/24 08:14:09;;;;;;;26.75;15.85;;;;;;;12.21;100.00;98983.47;4989685;28;20454;-88
2023/10/24 08:16:35;;;;;;;27.13;17.33;;;;;;;12.22;100.00;98963.44;4989369;28;20026;-88
2023/10/24 08:19:01;;;;;;;23.83;15.48;;;;;;;12.27;100.00;98966.59;4988542;28;20518;-89
2023/10/24 08:21:26;;;;;;;26.95;15.40;;;;;;;12.46;100.00;98974.06;4988545;28;20043;-88
2023/10/24 08:23:53;;;;;;;23.85;15.15;;;;;;;12.36;100.00;98947.72;4988535;28;20049;-87
2023/10/24 08:26:19;;;;;;;25.95;15.18;;;;;;;12.44;100.00;98960.28;4986649;28;20132;-89
2023/10/24 08:28:45;;;;;;;26.00;15.18;;;;;;;12.47;100.00;98941.78;4974331;28;20032;-88
2023/10/24 08:31:10;;;;;;;27.38;16.00;;;;;;;12.62;100.00;98953.84;4972210;28;20026;-89
2023/10/24 08:33:35;;;;;;;22.55;14.88;;;;;;;12.54;100.00;98937.81;5001009;28;20045;-89
2023/10/24 08:36:01;;;;;;;25.05;14.93;;;;;;;12.71;100.00;98949.78;5010097;28;20113;-89
2023/10/24 08:38:26;;;;;;;22.73;15.07;;;;;;;12.84;100.00;98955.84;5029294;28;20477;-88
2023/10/24 08:40:51;;;;;;;25.67;14.80;;;;;;;12.70;100.00;98935.88;5028903;28;20021;-89
2023/10/24 08:43:20;;;;;;;24.48;16.27;;;;;;;12.65;100.00;98940.56;5029454;28;20033;-89
2023/10/24 08:45:47;;;;;;;24.90;16.40;;;;;;;12.61;100.00;98919.97;5026760;28;20040;-89
2023/10/24 08:48:13;;;;;;;22.70;14.63;;;;;;;12.48;100.00;98865.13;5030769;28;20026;-89
2023/10/24 08:50:42;;;;;;;22.95;14.60;;;;;;;12.93;100.00;98925.63;5029045;28;20038;-90
2023/10/24 08:53:09;;;;;;;23.67;15.07;;;;;;;12.81;100.00;98900.34;5029325;28;20385;-90
2023/10/24 08:55:35;;;;;;;24.13;14.15;;;;;;;12.89;100.00;98908.50;5031626;28;20029;-88
2023/10/24 08:58:02;;;;;;;26.58;16.35;;;;;;;12.85;100.00;98899.19;5029634;28;20112;-89
2023/10/24 09:00:27;;;;;;;27.58;15.00;;;;;;;13.07;100.00;98912.50;5029841;28;20370;-90
2023/10/24 09:02:56;;;;;;;21.73;13.82;;;;;;;12.90;100.00;98881.44;5029650;28;20026;-90
2023/10/24 09:05:27;;;;;;;18.02;13.05;;;;;;;13.17;100.00;98915.28;5029886;28;20037;-90
2023/10/24 09:07:53;;;;;;;21.55;14.07;;;;;;;13.11;100.00;98897.44;5029223;28;20456;-90
2023/10/24 09:10:18;;;;;;;22.02;13.57;;;;;;;13.26;100.00;98919.09;5029967;28;20057;-90
2023/10/24 09:12:44;;;;;;;17.75;12.18;;;;;;;13.28;100.00;98914.59;5028922;28;20034;-88
2023/10/24 09:15:09;;;;;;;19.33;12.63;;;;;;;13.20;100.00;98876.72;5007392;28;20177;-89
2023/10/24 09:17:36;;;;;;;21.80;12.05;;;;;;;13.40;100.00;98905.88;4992873;28;20053;-90
2023/10/24 09:20:03;;;;;;;16.77;12.63;;;;;;;13.36;100.00;98910.50;4995412;28;20409;-89
2023/10/24 09:22:29;;;;;;;18.20;11.85;;;;;;;13.41;100.00;98904.94;5012412;28;20393;-89
2023/10/24 09:24:57;;;;;;;20.45;12.48;;;;;;;13.40;100.00;98904.13;5012041;28;20505;-89
2023/10/24 09:27:27;;;;;;;20.92;13.18;;;;;;;13.16;100.00;98869.19;4996021;28;20030;-89
2023/10/24 09:29:53;;;;;;;14.95;11.05;;;;;;;13.34;100.00;98906.31;4995497;28;20444;-89
2023/10/24 09:32:20;;;;;;;16.73;11.55;;;;;;;13.45;100.00;98917.72;4995800;28;20038;-89
2023/10/24 09:34:46;;;;;;;16.75;11.32;;;;;;;13.54;100.00;98921.47;4995560;28;20038;-90
2023/10/24 09:37:13;;;;;;;20.45;11.82;;;;;;;13.58;100.00;98922.91;5011432;28;20608;-89
2023/10/24 09:39:59;;;;;;;19.90;11.57;;;;;;;13.55;100.00;98896.13;4995428;28;20033;-89
2023/10/24 09:42:31;;;;;;;19.23;11.88;;;;;;;13.61;100.00;98893.06;5012021;28;20092;-89
2023/10/24 09:45:00;;;;;;;20.17;12.30;;;;;;;13.78;100.00;98910.19;5011546;28;20030;-89
2023/10/24 09:47:26;;;;;;;19.83;12.20;;;;;;;13.87;100.00;98910.38;5032633;28;20033;-89
2023/10/24 09:49:53;;;;;;;20.27;12.85;;;;;;;13.92;100.00;98905.63;5032432;28;20512;-89
2023/10/24 09:52:20;;;;;;;22.73;13.65;;;;;;;13.49;100.00;98845.09;5032815;28;20025;-90
2023/10/24 09:54:50;;;;;;;19.48;13.10;;;;;;;13.86;100.00;98886.91;5032843;28;20043;-90
2023/10/24 09:57:21;;;;;;;18.38;12.73;;;;;;;13.83;100.00;98877.50;5032662;28;20026;-89
2023/10/24 09:59:57;;;;;;;22.00;13.75;;;;;;;13.91;100.00;98877.78;5031244;28;20041;-89
2023/10/24 10:02:23;;;;;;;22.52;13.32;;;;;;;13.79;100.00;98855.13;5014808;28;20041;-90
2023/10/24 10:04:50;;;;;;;18.50;12.27;;;;;;;13.96;100.00;98885.31;5014647;28;20033;-90
2023/10/24 10:07:16;;;;;;;18.27;11.88;;;;;;;13.84;100.00;98873.09;5014761;28;20152;-90
2023/10/24 10:09:47;;;;;;;23.30;13.50;;;;;;;13.91;100.00;98858.63;5014485;28;20524;-89
2023/10/24 10:12:14;;;;;;;20.35;13.30;;;;;;;14.10;100.00;98863.34;5014287;28;20080;-89
2023/10/24 10:15:18;;;;;;;17.95;12.68;;;;;;;14.13;100.00;98850.88;5014484;28;20045;-90
2023/10/24 10:18:22;;;;;;;20.27;13.32;;;;;;;14.16;100.00;98834.09;5011116;28;20034;-90
2023/10/24 10:21:01;;;;;;;24.95;13.95;;;;;;;14.09;100.00;98838.13;4972362;28;20409;-89
2023/10/24 10:23:42;;;;;;;19.45;13.45;;;;;;;14.12;100.00;98825.63;4956010;28;20566;-89
2023/10/24 10:26:09;;;;;;;23.60;13.60;;;;;;;14.15;100.00;98825.38;4952644;28;20412;-89
2023/10/24 10:29:03;;;;;;;21.83;15.18;;;;;;;14.19;100.00;98818.97;4952581;28;20622;-89
2023/10/24 10:31:37;;;;;;;18.92;12.05;;;;;;;14.12;100.00;98783.75;4967460;28;20035;-89
2023/10/24 10:34:03;;;;;;;20.30;12.55;;;;;;;14.32;100.00;98799.72;4971730;28;20486;-89
2023/10/24 10:36:28;;;;;;;19.75;12.73;;;;;;;14.31;100.00;98798.91;4971576;28;20050;-89
2023/10/24 10:39:00;;;;;;;18.30;12.27;;;;;;;14.36;100.00;98802.00;4971625;28;20043;-89
2023/10/24 10:41:26;;;;;;;19.15;13.07;;;;;;;14.40;100.00;98806.06;4952561;28;20039;-89
2023/10/24 10:43:59;;;;;;;18.88;11.68;;;;;;;14.53;100.00;98798.13;4952399;28;20297;-91
2023/10/24 10:46:30;;;;;;;19.05;12.80;;;;;;;14.54;100.00;98786.72;4952387;28;20082;-91
2023/10/24 10:49:02;;;;;;;20.00;11.70;;;;;;;14.75;100.00;98801.72;4963184;28;20525;-91
2023/10/24 10:51:33;;;;;;;18.58;11.98;;;;;;;14.81;100.00;98802.09;4955518;28;20046;-91
2023/10/24 10:54:19;;;;;;;21.02;12.38;;;;;;;14.74;100.00;98795.63;4955269;28;20462;-91
2023/10/24 10:56:46;;;;;;;17.70;11.57;;;;;;;14.77;100.00;98808.50;4976242;28;20041;-89
2023/10/24 10:59:11;;;;;;;23.30;12.57;;;;;;;14.65;100.00;98809.47;5013641;28;20116;-91
2023/10/24 11:02:01;;;;;;;18.77;12.40;;;;;;;14.59;100.00;98796.84;5013850;28;20141;-91
2023/10/24 11:04:27;;;;;;;18.33;12.48;;;;;;;14.62;100.00;98779.09;5013509;28;20024;-92
2023/10/24 11:06:59;;;;;;;17.30;12.63;;;;;;;14.78;100.00;98772.66;5010130;28;20041;-91
2023/10/24 11:09:34;;;;;;;16.85;12.52;;;;;;;14.73;100.00;98752.03;4993948;28;20045;-88
2023/10/24 11:12:20;;;;;;;17.88;12.75;;;;;;;14.79;100.00;98748.97;4999766;28;20125;-92
2023/10/24 11:15:13;;;;;;;20.13;12.65;;;;;;;14.86;100.00;98741.44;5029874;28;20026;-91
2023/10/24 11:17:39;;;;;;;18.65;12.38;;;;;;;14.71;100.00;98733.81;5029963;28;20029;-91
2023/10/24 11:20:08;;;;;;;18.85;11.80;;;;;;;14.96;100.00;98761.56;5029691;28;20099;-91
2023/10/24 11:22:37;;;;;;;23.55;12.43;;;;;;;14.73;100.00;98721.41;5013266;28;20136;-91
2023/10/24 11:25:12;;;;;;;21.80;12.88;;;;;;;15.02;100.00;98759.41;5013050;28;20117;-89
2023/10/24 11:27:39;;;;;;;19.05;10.90;;;;;;;15.13;100.00;98756.78;5013211;28;20045;-88